SANU/UAQ METAR and TAF weather

Enter ICAO airport designator
Station Type Date Time Source
SANU METAR 2019/07/21 14:28 UTC NOAA

SANU 211428Z 32020G36KT 5000 BLDU NSC 30/M12 Q0999


Station Type Date Time Source
SANU Decoded METAR 2019/07/21 14:28 UTC NOAA

San Juan Aerodrome, Argentina (SANU) 31-34S 068-52W 598M
Jul 21, 2019 - 10:28 AM EDT / 2019.07.21 1428 UTC
Wind: from the NW (320 degrees) at 23 MPH (20 KT) gusting to 41 MPH (36 KT):0
Visibility: 3 mile(s):0
Weather: blowing widespread dust
Temperature: 86 F (30 C)
Dew Point: 10 F (-12 C)
Relative Humidity: 5%
Pressure (altimeter): 29.50 in. Hg (0999 hPa)
ob: SANU 211428Z 32020G36KT 5000 BLDU NSC 30/M12 Q0999
cycle: 14

Station Type Date Time Source
SANU TAF 2019/08/18 18:03 UTC NOAA

TAF TAF SANU 181700Z 1818/1912 18010KT 9999 FEW030 SCT070 TX17/1819Z TN01/1911Z

Example: see airport list